Time;durP1;ratioP1;P1;durP2;ratioP2;P2;SDS_P1;SDS_P2;PMS_P1;PMS_P2;Temp;Humidity;BMP_temperature;BMP_pressure;BME280_temperature;BME280_humidity;BME280_pressure;Samples;Min_cycle;Max_cycle;Signal;HPM_P1;HPM_P2
2021/12/19 00:01:24;;;;;;;10.00;7.60;;;;;;;3.81;90.70;100468.55;126392;1312;108800;-78
2021/12/19 00:04:37;;;;;;;13.80;8.70;;;;;;;3.83;90.61;100453.05;126546;1312;109191;-79
2021/12/19 00:11:07;;;;;;;11.10;7.20;;;;;;;3.91;90.30;100442.81;126501;1312;108720;-77
2021/12/19 00:14:12;;;;;;;14.30;8.30;;;;;;;3.94;90.28;100444.04;126512;1313;108689;-78
2021/12/19 00:17:18;;;;;;;9.70;6.70;;;;;;;3.99;90.14;100443.76;126368;1312;108808;-77
2021/12/19 00:20:23;;;;;;;9.10;6.90;;;;;;;3.98;90.02;100436.08;126415;1315;107850;-79
2021/12/19 00:23:29;;;;;;;8.70;6.60;;;;;;;3.93;90.01;100431.42;126351;1312;108661;-77
2021/12/19 00:26:35;;;;;;;9.20;6.90;;;;;;;3.91;90.23;100421.03;126589;1315;108550;-76
2021/12/19 00:29:40;;;;;;;10.80;7.10;;;;;;;3.92;90.34;100425.19;126633;1312;108373;-75
2021/12/19 00:32:46;;;;;;;9.70;6.70;;;;;;;3.92;90.33;100425.02;126509;1312;108902;-77
2021/12/19 00:35:51;;;;;;;9.40;6.40;;;;;;;3.93;90.40;100423.52;126439;1312;108694;-77
2021/12/19 00:38:57;;;;;;;13.50;8.00;;;;;;;4.01;90.54;100425.11;126679;1312;106643;-76
2021/12/19 00:42:07;;;;;;;10.70;7.40;;;;;;;4.08;90.48;100420.73;126549;1312;107096;-77
2021/12/19 00:45:24;;;;;;;13.00;7.90;;;;;;;4.07;90.26;100411.96;126620;1315;109552;-76
2021/12/19 00:48:29;;;;;;;16.40;9.00;;;;;;;4.06;90.33;100410.98;126565;1312;107631;-76
2021/12/19 00:51:35;;;;;;;11.80;7.10;;;;;;;4.09;90.38;100401.64;126374;1312;108917;-76
2021/12/19 00:54:40;;;;;;;17.90;10.40;;;;;;;4.12;90.40;100390.52;126374;1315;108924;-75
2021/12/19 00:57:46;;;;;;;13.90;8.20;;;;;;;4.16;90.38;100372.13;126634;1312;108693;-77
2021/12/19 01:00:52;;;;;;;12.00;6.60;;;;;;;4.16;90.39;100367.16;126838;1312;107938;-76
2021/12/19 01:03:57;;;;;;;7.60;5.70;;;;;;;4.17;90.26;100355.67;126693;1312;108758;-77
2021/12/19 01:07:03;;;;;;;11.80;6.90;;;;;;;4.16;90.32;100348.36;126618;1316;108879;-76
2021/12/19 01:10:10;;;;;;;9.50;7.00;;;;;;;4.21;90.35;100349.92;126481;1312;108947;-75
2021/12/19 01:13:17;;;;;;;10.50;6.50;;;;;;;4.13;90.20;100343.08;126739;1312;109047;-78
2021/12/19 01:16:23;;;;;;;9.40;7.00;;;;;;;4.09;90.28;100344.77;126760;1315;108979;-77
2021/12/19 01:19:28;;;;;;;8.00;5.90;;;;;;;4.11;90.55;100351.72;126749;1312;108984;-76
2021/12/19 01:22:34;;;;;;;10.00;6.50;;;;;;;4.13;90.22;100347.17;126821;1315;109252;-77
2021/12/19 01:25:40;;;;;;;8.60;5.80;;;;;;;4.20;90.11;100327.46;126440;1312;107913;-76
2021/12/19 01:28:46;;;;;;;8.30;5.90;;;;;;;4.18;89.87;100317.39;126400;1312;108795;-76
2021/12/19 01:31:51;;;;;;;6.70;5.10;;;;;;;4.16;89.49;100307.34;126519;1315;109001;-77
2021/12/19 01:34:57;;;;;;;6.40;4.50;;;;;;;4.11;89.55;100305.73;126384;1313;108969;-78
2021/12/19 01:38:02;;;;;;;9.70;5.50;;;;;;;4.13;89.57;100290.42;126334;1312;108801;-78
2021/12/19 01:41:08;;;;;;;6.10;4.80;;;;;;;4.19;89.42;100289.86;126502;1312;108904;-79
2021/12/19 01:44:14;;;;;;;7.30;4.70;;;;;;;4.17;89.25;100274.68;126392;1315;108856;-77
2021/12/19 01:47:21;;;;;;;5.90;4.70;;;;;;;4.14;89.41;100272.61;126319;1312;108886;-80
2021/12/19 01:50:27;;;;;;;7.40;5.50;;;;;;;4.10;89.46;100275.21;126708;1312;109791;-78
2021/12/19 01:53:33;;;;;;;8.00;4.70;;;;;;;4.15;89.49;100277.33;126509;1316;108602;-78
2021/12/19 01:56:39;;;;;;;7.90;4.90;;;;;;;4.17;89.55;100256.90;126376;1315;108435;-79
2021/12/19 01:59:45;;;;;;;7.00;4.70;;;;;;;4.19;89.52;100250.61;126408;1315;108429;-78
2021/12/19 02:02:50;;;;;;;5.70;3.90;;;;;;;4.20;89.37;100228.85;126472;1315;106869;-78
2021/12/19 02:05:56;;;;;;;4.70;3.50;;;;;;;4.19;89.37;100214.52;126586;1312;183469;-77
2021/12/19 02:09:06;;;;;;;4.90;3.80;;;;;;;4.19;89.41;100205.48;126353;1312;108554;-75
2021/12/19 02:12:12;;;;;;;5.00;3.90;;;;;;;4.22;89.52;100195.29;126432;1312;108103;-79
2021/12/19 02:15:20;;;;;;;5.30;3.70;;;;;;;4.22;89.72;100181.13;126775;1315;108810;-78
2021/12/19 02:18:27;;;;;;;5.00;3.80;;;;;;;4.26;89.55;100171.86;126717;1312;107875;-79
2021/12/19 02:21:32;;;;;;;5.20;3.70;;;;;;;4.28;89.64;100158.15;126670;1315;108886;-77
2021/12/19 02:24:38;;;;;;;5.50;3.60;;;;;;;4.34;89.46;100157.59;126450;1316;108919;-77
2021/12/19 02:27:43;;;;;;;4.90;3.90;;;;;;;4.36;89.58;100147.39;126681;1312;108993;-76
2021/12/19 02:30:50;;;;;;;6.80;4.20;;;;;;;4.43;89.47;100132.43;126709;1312;108759;-77
2021/12/19 02:34:02;;;;;;;5.40;3.70;;;;;;;4.46;89.45;100114.70;126585;1315;108707;-77
2021/12/19 02:37:20;;;;;;;6.40;3.70;;;;;;;4.47;89.56;100108.29;126472;1315;108942;-79
2021/12/19 02:48:07;;;;;;;5.50;3.60;;;;;;;4.47;89.54;100103.54;126512;1312;108825;-78
2021/12/19 02:50:52;;;;;;;6.20;3.80;;;;;;;4.56;89.33;100087.58;126587;1312;108901;-78
2021/12/19 02:54:00;;;;;;;8.10;4.40;;;;;;;4.56;89.35;100090.38;126714;1315;108786;-77
2021/12/19 02:57:06;;;;;;;4.70;3.50;;;;;;;4.60;89.33;100090.61;126681;1316;108766;-76
2021/12/19 03:00:15;;;;;;;6.20;4.50;;;;;;;4.63;89.41;100091.09;126570;1312;108761;-77
2021/12/19 03:03:21;;;;;;;4.40;3.60;;;;;;;4.65;89.24;100091.10;126731;1315;106757;-77
2021/12/19 03:06:26;;;;;;;7.40;3.80;;;;;;;4.60;89.21;100084.97;126780;1315;107274;-78
2021/12/19 03:09:53;;;;;;;4.80;3.40;;;;;;;4.58;89.58;100086.38;126774;1315;108678;-78
2021/12/19 03:13:15;;;;;;;6.50;3.80;;;;;;;4.52;89.69;100080.96;126701;1312;106655;-77
2021/12/19 03:19:44;;;;;;;5.10;3.70;;;;;;;4.56;89.86;100062.73;126370;1312;107823;-75
2021/12/19 03:22:50;;;;;;;5.70;3.70;;;;;;;4.57;89.98;100045.69;126343;1315;108585;-75
2021/12/19 03:25:55;;;;;;;4.40;3.30;;;;;;;4.60;89.84;100042.88;126452;1313;108727;-76
2021/12/19 03:29:00;;;;;;;6.60;4.80;;;;;;;4.62;90.01;100033.87;126412;1315;109596;-76
2021/12/19 03:32:07;;;;;;;5.50;3.50;;;;;;;4.67;89.96;100031.70;126688;1315;108967;-77
2021/12/19 03:35:12;;;;;;;4.80;3.40;;;;;;;4.70;90.04;100022.66;126320;1315;108929;-78
2021/12/19 03:38:19;;;;;;;4.10;3.00;;;;;;;4.70;89.87;100016.13;126387;1315;108402;-76
2021/12/19 03:41:33;;;;;;;4.20;3.40;;;;;;;4.70;90.06;100015.76;126417;1315;108986;-76
2021/12/19 03:44:38;;;;;;;4.50;2.90;;;;;;;4.71;90.14;100004.98;126745;1315;109168;-77
2021/12/19 03:47:44;;;;;;;4.90;3.30;;;;;;;4.69;90.33;99999.10;126806;1315;108165;-76
2021/12/19 03:50:51;;;;;;;3.60;2.80;;;;;;;4.67;90.44;99992.38;126754;1315;108926;-78
2021/12/19 03:53:56;;;;;;;4.60;3.40;;;;;;;4.69;90.42;99991.57;126673;1315;108924;-74
2021/12/19 03:57:02;;;;;;;3.50;2.70;;;;;;;4.77;90.37;99987.95;126653;1313;109044;-77
2021/12/19 04:00:14;;;;;;;4.40;3.20;;;;;;;4.80;90.40;99985.13;126464;1315;108955;-79
2021/12/19 04:03:19;;;;;;;4.60;3.20;;;;;;;4.84;90.38;99973.66;126357;1312;109094;-76
2021/12/19 04:06:25;;;;;;;4.60;3.40;;;;;;;4.87;90.21;99971.80;126583;1312;108957;-76
2021/12/19 04:09:31;;;;;;;5.00;3.20;;;;;;;4.88;90.34;99966.10;126437;1316;108732;-77
2021/12/19 04:12:36;;;;;;;4.70;3.60;;;;;;;4.86;90.31;99956.92;126803;1315;108691;-76
2021/12/19 04:15:42;;;;;;;4.70;3.00;;;;;;;4.84;90.64;99964.86;126827;1315;108927;-76
2021/12/19 04:18:47;;;;;;;5.90;3.80;;;;;;;4.83;90.49;99961.75;126820;1312;108856;-76
2021/12/19 04:21:53;;;;;;;4.70;3.30;;;;;;;4.86;90.68;99953.59;126806;1315;108961;-76
2021/12/19 04:24:58;;;;;;;4.70;3.30;;;;;;;4.85;90.62;99960.31;126856;1315;108866;-78
2021/12/19 04:28:04;;;;;;;4.50;3.30;;;;;;;4.84;90.74;99956.04;126750;1315;108927;-77
2021/12/19 04:31:09;;;;;;;4.40;3.30;;;;;;;4.84;91.13;99956.88;126873;1313;107437;-77
2021/12/19 04:34:16;;;;;;;5.00;3.80;;;;;;;4.84;91.38;99950.89;126495;1315;108857;-76
2021/12/19 04:37:46;;;;;;;5.30;3.70;;;;;;;4.85;91.20;99940.27;126824;1315;108713;-80
2021/12/19 04:41:07;;;;;;;4.40;3.20;;;;;;;4.87;91.34;99937.65;126521;1316;108983;-77
2021/12/19 04:44:42;;;;;;;6.40;4.00;;;;;;;4.87;91.52;99932.15;126407;1315;108669;-78
2021/12/19 04:51:37;;;;;;;7.60;4.10;;;;;;;4.86;91.86;99927.30;126529;1316;108970;-77
2021/12/19 04:54:57;;;;;;;7.70;4.70;;;;;;;4.90;91.71;99927.71;126429;1311;108494;-78
2021/12/19 04:58:17;;;;;;;7.00;4.80;;;;;;;4.93;91.70;99919.31;126482;1309;107593;-79
2021/12/19 05:01:44;;;;;;;27.30;16.70;;;;;;;4.97;91.66;99904.07;126607;1315;108708;-79
2021/12/19 05:05:23;;;;;;;29.90;17.10;;;;;;;4.97;91.49;99883.27;126612;1315;109077;-76
2021/12/19 05:15:14;;;;;;;9.10;6.20;;;;;;;4.99;91.82;99874.58;126537;1315;107708;-74
2021/12/19 05:18:24;;;;;;;8.80;5.70;;;;;;;4.98;92.04;99878.05;126665;1316;109025;-74
2021/12/19 05:21:29;;;;;;;21.20;14.00;;;;;;;4.97;91.81;99870.02;126625;1315;108729;-74
2021/12/19 05:24:49;;;;;;;10.00;6.20;;;;;;;4.99;91.63;99870.68;126606;1312;105791;-75
2021/12/19 05:27:57;;;;;;;8.90;6.00;;;;;;;5.02;91.61;99869.39;126524;1315;108657;-76
2021/12/19 05:31:02;;;;;;;14.70;7.50;;;;;;;5.03;91.61;99867.55;126675;1315;109025;-80
2021/12/19 05:34:08;;;;;;;14.70;7.80;;;;;;;5.04;91.36;99860.82;126671;1317;109523;-86
2021/12/19 05:45:11;;;;;;;9.10;5.70;;;;;;;5.09;91.27;99853.98;126673;1310;108791;-81
2021/12/19 05:47:39;;;;;;;33.80;16.30;;;;;;;5.04;91.16;99855.14;126599;1311;109025;-80
2021/12/19 05:50:44;;;;;;;11.70;6.40;;;;;;;5.07;91.17;99860.00;126602;1315;108885;-80
2021/12/19 05:53:50;;;;;;;19.30;9.80;;;;;;;5.08;91.11;99865.72;126636;1310;108840;-80
2021/12/19 05:56:55;;;;;;;13.50;7.10;;;;;;;5.05;90.94;99869.30;126497;1311;108830;-81
2021/12/19 06:00:01;;;;;;;33.70;13.80;;;;;;;5.01;91.29;99863.71;126408;1311;108707;-81
2021/12/19 06:03:07;;;;;;;22.80;10.60;;;;;;;4.99;91.42;99863.00;126567;1311;108724;-80
2021/12/19 06:06:12;;;;;;;10.60;5.50;;;;;;;4.99;91.17;99870.18;126752;1315;108794;-82
2021/12/19 06:09:18;;;;;;;19.90;10.90;;;;;;;4.98;91.12;99860.40;126659;1313;106667;-78
2021/12/19 06:12:23;;;;;;;14.10;8.70;;;;;;;4.95;91.20;99871.02;126790;1316;108858;-76
2021/12/19 06:15:29;;;;;;;10.30;5.40;;;;;;;4.93;91.18;99863.27;126743;1309;109442;-79
2021/12/19 06:18:34;;;;;;;9.10;5.10;;;;;;;4.94;91.30;99861.27;126472;1316;108827;-77
2021/12/19 06:21:40;;;;;;;9.30;5.20;;;;;;;4.96;91.43;99869.55;126563;1315;108898;-77
2021/12/19 06:24:45;;;;;;;7.80;4.80;;;;;;;4.95;91.50;99860.64;126506;1315;109031;-76
2021/12/19 06:27:51;;;;;;;9.50;4.80;;;;;;;4.93;91.44;99854.14;126533;1309;108829;-81
2021/12/19 06:30:56;;;;;;;8.60;4.70;;;;;;;4.90;91.53;99853.50;126700;1315;108935;-80
2021/12/19 06:34:02;;;;;;;9.70;5.20;;;;;;;4.89;91.54;99857.95;126586;1309;108897;-79
2021/12/19 06:37:10;;;;;;;7.50;4.10;;;;;;;4.89;91.57;99847.56;126484;1311;106936;-80
2021/12/19 06:40:18;;;;;;;7.00;3.90;;;;;;;4.88;91.74;99847.27;126439;1315;108706;-82
2021/12/19 06:43:25;;;;;;;6.20;4.00;;;;;;;4.86;91.67;99838.70;126602;1317;108788;-80
2021/12/19 06:46:30;;;;;;;9.00;4.50;;;;;;;4.89;91.82;99843.64;126523;1312;108661;-82
2021/12/19 06:49:36;;;;;;;6.80;3.60;;;;;;;4.89;91.51;99843.89;126670;1312;108940;-83
2021/12/19 06:52:42;;;;;;;8.90;3.70;;;;;;;4.86;91.70;99842.86;126374;1312;108379;-81
2021/12/19 06:55:48;;;;;;;10.40;6.00;;;;;;;4.89;91.62;99840.69;126660;1316;108506;-82
2021/12/19 06:58:53;;;;;;;13.20;7.70;;;;;;;4.92;91.43;99840.93;126554;1311;108920;-80
2021/12/19 07:01:58;;;;;;;32.70;16.50;;;;;;;4.95;91.62;99838.98;126584;1312;108801;-80
2021/12/19 07:05:05;;;;;;;10.20;7.00;;;;;;;4.96;91.53;99833.06;126521;1312;107437;-80
2021/12/19 07:08:10;;;;;;;8.80;5.50;;;;;;;4.99;91.37;99832.64;126704;1311;108827;-78
2021/12/19 07:11:16;;;;;;;8.10;4.80;;;;;;;5.00;91.43;99830.85;126721;1311;108075;-82
2021/12/19 07:14:22;;;;;;;15.70;8.10;;;;;;;5.00;91.29;99829.41;126633;1310;109040;-82
2021/12/19 07:17:27;;;;;;;9.20;4.40;;;;;;;4.96;91.03;99831.00;126646;1313;109205;-83
2021/12/19 07:20:33;;;;;;;30.70;15.50;;;;;;;4.95;91.26;99835.83;126977;1309;107496;-82
2021/12/19 07:23:38;;;;;;;12.10;6.60;;;;;;;4.96;91.24;99827.08;126858;1315;108917;-82
2021/12/19 07:26:44;;;;;;;42.70;18.80;;;;;;;4.96;91.30;99829.21;126715;1314;108851;-82
2021/12/19 07:29:49;;;;;;;41.70;19.50;;;;;;;4.95;91.35;99823.84;126676;1308;108833;-79
2021/12/19 07:32:56;;;;;;;16.30;8.10;;;;;;;4.94;91.37;99824.95;126401;1312;108916;-82
2021/12/19 07:36:02;;;;;;;107.20;54.00;;;;;;;4.92;91.28;99819.11;126563;1312;107823;-77
2021/12/19 07:39:12;;;;;;;10.70;5.00;;;;;;;4.94;91.51;99818.44;126651;1313;108893;-79
2021/12/19 07:42:18;;;;;;;9.50;4.60;;;;;;;4.95;91.31;99817.84;126543;1309;108897;-85
2021/12/19 07:45:23;;;;;;;28.30;18.30;;;;;;;4.96;91.33;99818.59;126629;1309;108728;-84
2021/12/19 07:48:29;;;;;;;10.10;7.30;;;;;;;4.98;91.23;99816.90;126753;1309;108886;-84
2021/12/19 07:51:34;;;;;;;8.30;4.90;;;;;;;5.01;91.35;99813.95;126717;1309;107421;-83
2021/12/19 07:54:39;;;;;;;6.10;3.70;;;;;;;5.06;91.20;99814.11;126726;1313;108740;-81
2021/12/19 07:57:45;;;;;;;7.10;4.20;;;;;;;5.02;91.10;99807.33;126896;1309;108892;-81
2021/12/19 08:00:50;;;;;;;8.10;4.30;;;;;;;5.03;91.15;99806.06;126801;1309;107987;-81
2021/12/19 08:03:55;;;;;;;6.10;4.00;;;;;;;5.03;91.21;99815.42;127116;1311;108703;-82
2021/12/19 08:07:01;;;;;;;6.80;3.60;;;;;;;5.01;91.28;99814.67;126588;1311;107405;-82
2021/12/19 08:10:14;;;;;;;5.60;3.30;;;;;;;5.02;91.27;99811.40;126609;1315;108893;-81
2021/12/19 08:13:20;;;;;;;7.30;4.40;;;;;;;5.02;91.32;99804.89;126502;1311;108828;-79
2021/12/19 08:16:25;;;;;;;6.10;4.30;;;;;;;5.06;91.18;99797.14;126528;1312;108887;-79
2021/12/19 08:19:30;;;;;;;9.30;4.50;;;;;;;5.13;91.18;99796.95;126410;1312;109004;-78
2021/12/19 08:22:36;;;;;;;7.80;4.00;;;;;;;5.16;91.08;99798.13;126441;1310;107147;-78
2021/12/19 08:25:42;;;;;;;9.40;5.20;;;;;;;5.12;90.90;99801.22;126469;1315;108771;-76
2021/12/19 08:28:47;;;;;;;8.80;4.80;;;;;;;5.10;91.06;99805.11;126516;1311;108990;-75
2021/12/19 08:31:53;;;;;;;10.70;4.70;;;;;;;5.10;91.25;99803.30;126370;1315;108926;-81
2021/12/19 08:34:58;;;;;;;8.10;3.90;;;;;;;5.09;91.10;99804.14;126344;1310;108847;-79
2021/12/19 08:38:04;;;;;;;8.00;4.20;;;;;;;5.07;91.12;99802.66;126522;1311;108994;-78
2021/12/19 08:41:09;;;;;;;8.50;4.20;;;;;;;5.07;91.25;99805.92;126507;1309;108823;-77
2021/12/19 08:44:15;;;;;;;7.40;4.40;;;;;;;5.10;91.17;99804.75;126544;1315;108981;-78
2021/12/19 08:47:20;;;;;;;9.20;3.90;;;;;;;5.13;91.25;99805.25;126501;1309;108826;-79
2021/12/19 08:50:26;;;;;;;8.10;4.50;;;;;;;5.15;91.02;99808.80;126514;1309;108975;-77
2021/12/19 08:53:31;;;;;;;7.70;5.10;;;;;;;5.20;90.85;99808.70;126413;1309;108839;-79
2021/12/19 08:56:37;;;;;;;7.70;4.40;;;;;;;5.19;90.61;99807.36;126463;1310;106951;-79
2021/12/19 08:59:43;;;;;;;7.80;4.30;;;;;;;5.20;90.50;99802.33;126559;1313;108796;-79
2021/12/19 09:02:51;;;;;;;8.40;4.20;;;;;;;5.25;90.59;99802.21;126492;1309;108582;-82
2021/12/19 09:05:57;;;;;;;6.90;4.00;;;;;;;5.31;90.45;99807.04;126759;1309;108804;-80
2021/12/19 09:09:03;;;;;;;10.20;4.90;;;;;;;5.34;90.22;99802.89;126603;1312;108793;-80
2021/12/19 09:12:10;;;;;;;6.90;4.00;;;;;;;5.35;89.95;99803.02;126974;1309;107789;-79
2021/12/19 09:15:16;;;;;;;10.90;4.80;;;;;;;5.29;89.73;99796.09;126865;1309;108756;-78
2021/12/19 09:18:22;;;;;;;21.80;13.80;;;;;;;5.32;89.78;99789.70;126755;1310;108928;-80
2021/12/19 09:21:27;;;;;;;14.40;6.70;;;;;;;5.40;89.90;99790.27;126806;1312;109157;-80
2021/12/19 09:24:33;;;;;;;12.40;5.60;;;;;;;5.47;89.78;99780.42;126689;1311;108737;-78
2021/12/19 09:27:38;;;;;;;9.60;4.70;;;;;;;5.51;89.41;99777.11;126537;1317;107890;-76
2021/12/19 09:30:45;;;;;;;8.10;4.20;;;;;;;5.47;88.78;99775.35;126590;1312;108956;-78
2021/12/19 09:33:50;;;;;;;14.50;6.70;;;;;;;5.48;88.89;99763.80;126623;1310;108727;-79
2021/12/19 09:36:57;;;;;;;12.70;5.80;;;;;;;5.55;89.12;99771.65;126824;1312;108736;-79
2021/12/19 09:40:03;;;;;;;7.50;3.80;;;;;;;5.61;89.02;99768.14;126893;1309;108912;-78
2021/12/19 09:43:41;;;;;;;12.40;8.30;;;;;;;5.66;88.84;99763.98;126944;1309;108746;-79
2021/12/19 09:46:38;;;;;;;9.70;4.30;;;;;;;5.72;88.63;99757.45;126870;1310;108750;-78
2021/12/19 09:49:44;;;;;;;9.60;4.10;;;;;;;5.81;88.26;99754.92;126970;1311;108828;-78
2021/12/19 09:52:50;;;;;;;9.50;4.90;;;;;;;5.82;87.59;99749.40;126783;1309;108928;-77
2021/12/19 09:55:56;;;;;;;8.70;4.10;;;;;;;5.75;87.38;99743.08;126392;1309;109690;-77
2021/12/19 09:59:03;;;;;;;10.20;4.60;;;;;;;5.73;87.58;99738.50;126459;1309;108825;-75
2021/12/19 10:02:08;;;;;;;10.10;4.50;;;;;;;5.75;87.69;99731.41;126745;1310;109070;-78
2021/12/19 10:05:20;;;;;;;10.40;4.20;;;;;;;5.82;88.02;99712.67;126770;1315;108973;-78
2021/12/19 10:08:26;;;;;;;9.80;5.40;;;;;;;5.88;87.90;99711.57;126280;1309;186885;-75
2021/12/19 10:11:43;;;;;;;6.20;3.50;;;;;;;5.97;87.43;99705.34;126351;1309;108174;-76
2021/12/19 10:14:48;;;;;;;8.70;3.90;;;;;;;6.05;86.86;99696.19;126609;1309;108204;-79
2021/12/19 10:18:04;;;;;;;8.40;4.00;;;;;;;6.18;86.80;99687.95;126684;1309;106650;-77
2021/12/19 10:21:10;;;;;;;10.50;5.10;;;;;;;6.22;86.18;99699.63;126449;1309;108885;-76
2021/12/19 10:24:33;;;;;;;8.70;3.80;;;;;;;6.14;86.70;99694.34;126397;1309;108903;-78
2021/12/19 10:27:40;;;;;;;11.40;5.10;;;;;;;6.14;86.87;99689.38;126407;1309;108848;-77
2021/12/19 10:30:49;;;;;;;8.70;4.40;;;;;;;6.15;86.40;99682.59;126692;1309;108763;-76
2021/12/19 10:33:55;;;;;;;8.80;4.20;;;;;;;6.14;86.30;99681.05;126598;1312;109015;-77
2021/12/19 10:37:00;;;;;;;8.10;4.10;;;;;;;6.09;86.24;99679.54;126502;1309;108891;-75
2021/12/19 10:40:07;;;;;;;10.30;4.40;;;;;;;6.09;86.77;99671.27;126404;1309;108823;-75
2021/12/19 10:43:16;;;;;;;10.00;4.10;;;;;;;6.09;86.80;99658.05;126785;1309;109178;-76
2021/12/19 10:46:29;;;;;;;9.40;4.50;;;;;;;6.12;86.22;99651.56;126798;1309;108303;-77
2021/12/19 10:49:36;;;;;;;12.40;4.60;;;;;;;6.10;85.68;99643.61;126553;1309;108492;-74
2021/12/19 10:52:42;;;;;;;12.20;6.60;;;;;;;6.08;86.04;99640.09;126410;1309;108792;-75
2021/12/19 10:55:50;;;;;;;9.20;5.10;;;;;;;6.11;85.71;99638.27;126525;1309;109017;-75
2021/12/19 10:58:57;;;;;;;6.80;3.60;;;;;;;6.14;85.95;99629.80;126698;1309;108440;-77
2021/12/19 11:02:03;;;;;;;9.60;4.60;;;;;;;6.20;86.16;99625.08;126543;1309;108892;-76
2021/12/19 11:05:36;;;;;;;8.70;4.70;;;;;;;6.22;85.28;99634.70;126510;1309;108805;-76
2021/12/19 11:08:44;;;;;;;12.60;6.20;;;;;;;6.13;84.75;99628.39;126953;1309;108847;-77
2021/12/19 11:11:52;;;;;;;11.10;5.10;;;;;;;6.12;85.82;99613.78;126606;1309;108934;-76
2021/12/19 11:14:58;;;;;;;9.30;4.90;;;;;;;6.11;85.13;99611.58;126827;1309;109071;-76
2021/12/19 11:18:03;;;;;;;9.10;4.00;;;;;;;6.10;85.58;99611.84;126496;1309;108937;-77
2021/12/19 11:21:09;;;;;;;8.50;4.00;;;;;;;6.06;84.96;99605.10;126452;1309;108968;-76
2021/12/19 11:24:17;;;;;;;9.30;3.90;;;;;;;6.07;85.23;99598.92;126834;1309;108980;-76
2021/12/19 11:27:22;;;;;;;12.00;4.10;;;;;;;6.07;85.34;99601.47;126493;1309;107755;-77
2021/12/19 11:30:28;;;;;;;22.20;11.40;;;;;;;6.05;84.46;99593.95;126757;1309;108899;-75
2021/12/19 11:33:50;;;;;;;15.30;6.90;;;;;;;6.03;84.97;99593.23;126531;1309;108719;-78
2021/12/19 11:37:04;;;;;;;27.60;17.80;;;;;;;6.02;84.78;99595.13;126683;1309;107737;-78
2021/12/19 11:40:16;;;;;;;23.50;13.40;;;;;;;6.02;84.73;99593.37;126769;1309;108784;-77
2021/12/19 11:43:21;;;;;;;16.10;10.90;;;;;;;6.00;84.83;99591.39;126871;1316;108652;-76
2021/12/19 11:46:44;;;;;;;14.00;7.80;;;;;;;5.96;85.00;99590.50;126734;1309;108794;-77
2021/12/19 11:50:14;;;;;;;19.50;11.30;;;;;;;5.98;84.73;99588.02;126720;1313;108838;-78
2021/12/19 11:53:27;;;;;;;14.30;7.20;;;;;;;5.90;84.27;99577.59;126694;1310;109193;-80
2021/12/19 11:56:32;;;;;;;16.70;8.70;;;;;;;5.88;84.57;99581.69;126646;1309;108773;-77
2021/12/19 11:59:39;;;;;;;17.90;9.80;;;;;;;5.85;84.88;99570.44;126629;1309;108917;-77
2021/12/19 12:02:44;;;;;;;12.20;6.10;;;;;;;5.86;85.06;99568.73;126860;1309;109091;-81
2021/12/19 12:05:51;;;;;;;15.00;8.90;;;;;;;5.88;84.95;99570.52;126861;1309;108726;-78
2021/12/19 12:09:23;;;;;;;26.90;13.40;;;;;;;5.84;84.45;99573.41;126860;1309;107443;-78
2021/12/19 12:12:35;;;;;;;21.00;12.00;;;;;;;5.83;84.84;99561.29;126422;1308;108763;-77
2021/12/19 12:15:41;;;;;;;16.10;7.80;;;;;;;5.82;84.60;99564.41;126501;1312;108540;-76
2021/12/19 12:18:54;;;;;;;11.50;5.40;;;;;;;5.74;83.90;99565.09;126602;1312;109070;-77
2021/12/19 12:22:30;;;;;;;13.10;6.40;;;;;;;5.68;84.57;99552.10;126730;1312;107628;-79
2021/12/19 12:25:42;;;;;;;11.20;6.20;;;;;;;5.69;84.53;99558.84;126708;1312;107751;-78
2021/12/19 12:28:47;;;;;;;10.60;4.90;;;;;;;5.65;84.06;99554.10;126666;1312;109089;-78
2021/12/19 12:31:54;;;;;;;12.00;6.60;;;;;;;5.60;84.68;99546.30;126692;1314;107727;-81
2021/12/19 12:35:00;;;;;;;11.10;6.10;;;;;;;5.62;84.94;99539.05;126519;1312;109063;-78
2021/12/19 12:38:08;;;;;;;9.60;5.20;;;;;;;5.65;84.81;99530.95;126475;1310;108642;-77
2021/12/19 12:41:27;;;;;;;17.50;8.60;;;;;;;5.66;84.50;99539.42;126478;1311;108907;-76
2021/12/19 12:44:32;;;;;;;12.20;5.70;;;;;;;5.64;84.53;99540.46;126675;1312;108929;-79
2021/12/19 12:47:40;;;;;;;11.90;6.30;;;;;;;5.59;84.31;99540.00;126700;1312;106979;-78
2021/12/19 12:50:53;;;;;;;14.60;5.50;;;;;;;5.57;84.85;99542.83;126380;1311;107362;-76
2021/12/19 12:54:02;;;;;;;11.70;6.30;;;;;;;5.60;84.66;99528.25;126545;1315;108635;-76
2021/12/19 12:57:10;;;;;;;11.70;5.60;;;;;;;5.60;84.40;99518.23;126571;1312;108692;-80
2021/12/19 13:00:26;;;;;;;16.20;9.90;;;;;;;5.61;84.64;99507.93;126647;1315;109673;-78
2021/12/19 13:03:31;;;;;;;15.10;7.40;;;;;;;5.61;84.42;99504.37;126580;1311;108697;-78
2021/12/19 13:06:49;;;;;;;14.10;6.60;;;;;;;5.55;84.20;99495.02;126421;1313;107810;-79
2021/12/19 13:10:00;;;;;;;13.30;6.30;;;;;;;5.58;84.30;99488.90;126444;1316;108904;-78
2021/12/19 13:13:10;;;;;;;10.90;5.70;;;;;;;5.59;84.16;99496.30;126716;1311;108803;-77
2021/12/19 13:16:26;;;;;;;12.90;7.00;;;;;;;5.58;83.91;99499.19;126428;1312;108958;-79
2021/12/19 13:19:44;;;;;;;11.20;5.50;;;;;;;5.54;83.88;99493.77;126417;1312;108100;-78
2021/12/19 13:22:53;;;;;;;9.00;4.50;;;;;;;5.52;83.80;99490.86;126676;1309;109938;-79
2021/12/19 13:26:03;;;;;;;9.90;4.60;;;;;;;5.53;83.79;99483.23;126825;1309;108697;-81
2021/12/19 13:29:20;;;;;;;12.80;5.60;;;;;;;5.55;84.12;99483.78;126603;1309;108823;-75
2021/12/19 13:32:30;;;;;;;10.00;6.00;;;;;;;5.58;84.12;99484.57;126772;1309;106799;-79
2021/12/19 13:35:40;;;;;;;9.80;4.80;;;;;;;5.58;83.74;99482.63;126987;1309;108772;-75
2021/12/19 13:38:45;;;;;;;13.80;6.20;;;;;;;5.51;83.33;99486.19;126804;1312;108976;-76
2021/12/19 13:41:50;;;;;;;11.50;5.70;;;;;;;5.49;83.32;99483.51;127050;1313;108748;-75
2021/12/19 13:44:56;;;;;;;11.50;5.80;;;;;;;5.46;83.41;99484.88;126890;1309;108860;-76
2021/12/19 13:48:04;;;;;;;11.30;5.70;;;;;;;5.42;83.80;99480.83;126964;1309;108682;-78
2021/12/19 13:51:14;;;;;;;12.00;5.50;;;;;;;5.40;83.99;99475.40;126855;1309;108702;-78
2021/12/19 13:54:28;;;;;;;9.90;5.50;;;;;;;5.36;84.27;99475.02;126912;1311;108895;-76
2021/12/19 13:57:34;;;;;;;13.00;7.30;;;;;;;5.38;84.49;99477.32;126952;1309;108348;-74
2021/12/19 14:00:42;;;;;;;11.00;5.20;;;;;;;5.40;84.62;99470.14;126900;1308;107239;-77
2021/12/19 14:03:51;;;;;;;12.80;6.40;;;;;;;5.38;84.63;99476.83;126904;1312;107035;-77
2021/12/19 14:07:03;;;;;;;13.50;5.70;;;;;;;5.30;84.96;99470.66;126726;1312;108858;-78
2021/12/19 14:10:09;;;;;;;14.70;5.90;;;;;;;5.24;85.40;99469.38;126776;1312;108743;-77
2021/12/19 14:13:31;;;;;;;14.70;6.60;;;;;;;5.21;85.46;99468.10;126592;1312;108920;-78
2021/12/19 14:16:42;;;;;;;15.70;6.60;;;;;;;5.15;85.93;99465.90;126536;1312;108778;-78
2021/12/19 14:19:53;;;;;;;13.00;5.40;;;;;;;5.07;86.33;99466.34;126514;1311;108789;-77
2021/12/19 14:23:16;;;;;;;17.60;8.20;;;;;;;5.04;86.39;99455.70;126566;1311;107351;-77
2021/12/19 14:26:27;;;;;;;12.40;6.20;;;;;;;5.00;86.89;99458.14;126366;1311;108747;-75
2021/12/19 14:29:33;;;;;;;13.00;6.20;;;;;;;4.98;86.92;99452.22;126365;1312;109016;-74
2021/12/19 14:32:46;;;;;;;13.10;5.70;;;;;;;4.94;87.50;99459.80;126583;1314;108696;-77
2021/12/19 14:35:53;;;;;;;12.20;6.10;;;;;;;4.89;87.44;99460.15;126496;1312;107596;-75
2021/12/19 14:39:03;;;;;;;14.00;6.10;;;;;;;4.86;87.82;99462.91;126517;1310;106784;-75
2021/12/19 14:42:12;;;;;;;14.50;6.40;;;;;;;4.82;88.31;99458.52;126664;1310;108734;-77
2021/12/19 14:45:25;;;;;;;16.00;7.10;;;;;;;4.79;87.70;99462.89;126572;1312;107266;-76
2021/12/19 14:48:36;;;;;;;18.30;6.90;;;;;;;4.77;87.91;99460.42;126620;1313;108864;-72
2021/12/19 14:51:42;;;;;;;12.70;6.20;;;;;;;4.76;88.01;99458.23;127158;1312;106951;-77
2021/12/19 14:54:47;;;;;;;15.20;7.10;;;;;;;4.75;87.93;99461.58;127081;1312;109032;-79
2021/12/19 14:57:53;;;;;;;9.20;4.10;;;;;;;4.71;87.64;99488.04;126604;1311;108786;-76
2021/12/19 15:01:00;;;;;;;3.50;2.00;;;;;;;4.49;85.61;99498.56;126562;1312;108132;-77